sensor_id;sensor_type;location;lat;lon;timestamp;temperature;humidity
1988;DHT22;12775;46.994;15.498;2023-09-07T00:02:24;18.60;92.40
1988;DHT22;12775;46.994;15.498;2023-09-07T00:04:51;18.60;92.40
1988;DHT22;12775;46.994;15.498;2023-09-07T00:07:17;18.60;92.30
1988;DHT22;12775;46.994;15.498;2023-09-07T00:09:45;18.60;92.40
1988;DHT22;12775;46.994;15.498;2023-09-07T00:12:10;18.60;92.50
1988;DHT22;12775;46.994;15.498;2023-09-07T00:14:38;18.50;92.90
1988;DHT22;12775;46.994;15.498;2023-09-07T00:17:04;18.50;93.00
1988;DHT22;12775;46.994;15.498;2023-09-07T00:19:31;18.50;92.90
1988;DHT22;12775;46.994;15.498;2023-09-07T00:21:58;18.40;92.50
1988;DHT22;12775;46.994;15.498;2023-09-07T00:24:25;18.40;92.50
1988;DHT22;12775;46.994;15.498;2023-09-07T00:26:52;18.40;92.60
1988;DHT22;12775;46.994;15.498;2023-09-07T00:29:18;18.40;92.70
1988;DHT22;12775;46.994;15.498;2023-09-07T00:31:45;18.40;93.10
1988;DHT22;12775;46.994;15.498;2023-09-07T00:34:11;18.30;93.40
1988;DHT22;12775;46.994;15.498;2023-09-07T00:36:38;18.30;93.40
1988;DHT22;12775;46.994;15.498;2023-09-07T00:39:05;18.30;93.10
1988;DHT22;12775;46.994;15.498;2023-09-07T00:41:32;18.20;93.10
1988;DHT22;12775;46.994;15.498;2023-09-07T00:43:59;18.20;93.10
1988;DHT22;12775;46.994;15.498;2023-09-07T00:46:25;18.20;93.00
1988;DHT22;12775;46.994;15.498;2023-09-07T00:48:52;18.20;92.80
1988;DHT22;12775;46.994;15.498;2023-09-07T00:51:18;18.20;93.00
1988;DHT22;12775;46.994;15.498;2023-09-07T00:53:45;18.10;92.90
1988;DHT22;12775;46.994;15.498;2023-09-07T00:56:12;18.10;92.90
1988;DHT22;12775;46.994;15.498;2023-09-07T00:58:38;18.10;92.90
1988;DHT22;12775;46.994;15.498;2023-09-07T01:01:05;18.10;92.90
1988;DHT22;12775;46.994;15.498;2023-09-07T01:03:31;18.10;93.30
1988;DHT22;12775;46.994;15.498;2023-09-07T01:06:03;18.00;93.10
1988;DHT22;12775;46.994;15.498;2023-09-07T01:08:32;18.00;92.60
1988;DHT22;12775;46.994;15.498;2023-09-07T01:10:56;18.00;92.60
1988;DHT22;12775;46.994;15.498;2023-09-07T01:13:22;17.90;92.50
1988;DHT22;12775;46.994;15.498;2023-09-07T01:15:49;17.90;92.50
1988;DHT22;12775;46.994;15.498;2023-09-07T01:18:15;17.90;92.70
1988;DHT22;12775;46.994;15.498;2023-09-07T01:20:42;17.90;92.80
1988;DHT22;12775;46.994;15.498;2023-09-07T01:23:09;17.90;93.00
1988;DHT22;12775;46.994;15.498;2023-09-07T01:25:35;17.80;92.90
1988;DHT22;12775;46.994;15.498;2023-09-07T01:28:03;17.70;93.10
1988;DHT22;12775;46.994;15.498;2023-09-07T01:30:30;17.70;93.20
1988;DHT22;12775;46.994;15.498;2023-09-07T01:32:58;17.70;93.40
1988;DHT22;12775;46.994;15.498;2023-09-07T01:35:25;17.70;93.60
1988;DHT22;12775;46.994;15.498;2023-09-07T01:37:53;17.60;93.50
1988;DHT22;12775;46.994;15.498;2023-09-07T01:40:19;17.60;93.50
1988;DHT22;12775;46.994;15.498;2023-09-07T01:42:46;17.60;93.40
1988;DHT22;12775;46.994;15.498;2023-09-07T01:45:12;17.60;93.30
1988;DHT22;12775;46.994;15.498;2023-09-07T01:47:39;17.60;93.00
1988;DHT22;12775;46.994;15.498;2023-09-07T01:50:06;17.60;92.90
1988;DHT22;12775;46.994;15.498;2023-09-07T01:52:32;17.60;93.00
1988;DHT22;12775;46.994;15.498;2023-09-07T01:54:59;17.60;92.90
1988;DHT22;12775;46.994;15.498;2023-09-07T01:57:26;17.50;92.90
1988;DHT22;12775;46.994;15.498;2023-09-07T01:59:53;17.50;93.20
1988;DHT22;12775;46.994;15.498;2023-09-07T02:02:19;17.50;92.80
1988;DHT22;12775;46.994;15.498;2023-09-07T02:04:46;17.50;92.80
1988;DHT22;12775;46.994;15.498;2023-09-07T02:07:13;17.40;92.70
1988;DHT22;12775;46.994;15.498;2023-09-07T02:09:39;17.40;93.00
1988;DHT22;12775;46.994;15.498;2023-09-07T02:12:07;17.40;93.60
1988;DHT22;12775;46.994;15.498;2023-09-07T02:14:33;17.30;93.60
1988;DHT22;12775;46.994;15.498;2023-09-07T02:17:00;17.30;94.00
1988;DHT22;12775;46.994;15.498;2023-09-07T02:19:27;17.30;93.90
1988;DHT22;12775;46.994;15.498;2023-09-07T02:21:55;17.30;93.90
1988;DHT22;12775;46.994;15.498;2023-09-07T02:24:21;17.30;93.90
1988;DHT22;12775;46.994;15.498;2023-09-07T02:26:48;17.30;93.60
1988;DHT22;12775;46.994;15.498;2023-09-07T02:29:14;17.20;93.30
1988;DHT22;12775;46.994;15.498;2023-09-07T02:31:41;17.30;93.30
1988;DHT22;12775;46.994;15.498;2023-09-07T02:34:08;17.20;93.20
1988;DHT22;12775;46.994;15.498;2023-09-07T02:36:34;17.20;93.20
1988;DHT22;12775;46.994;15.498;2023-09-07T02:39:01;17.20;93.20
1988;DHT22;12775;46.994;15.498;2023-09-07T02:41:27;17.20;93.30
1988;DHT22;12775;46.994;15.498;2023-09-07T02:43:54;17.10;93.40
1988;DHT22;12775;46.994;15.498;2023-09-07T02:46:21;17.10;93.40
1988;DHT22;12775;46.994;15.498;2023-09-07T02:48:48;17.10;93.40
1988;DHT22;12775;46.994;15.498;2023-09-07T02:51:15;17.10;93.30
1988;DHT22;12775;46.994;15.498;2023-09-07T02:53:41;17.10;93.30
1988;DHT22;12775;46.994;15.498;2023-09-07T02:56:08;17.00;93.10
1988;DHT22;12775;46.994;15.498;2023-09-07T02:58:34;17.00;93.20
1988;DHT22;12775;46.994;15.498;2023-09-07T03:01:05;17.00;93.10
1988;DHT22;12775;46.994;15.498;2023-09-07T03:03:28;17.00;93.20
1988;DHT22;12775;46.994;15.498;2023-09-07T03:05:55;16.90;93.20
1988;DHT22;12775;46.994;15.498;2023-09-07T03:08:22;16.90;93.10
1988;DHT22;12775;46.994;15.498;2023-09-07T03:10:48;17.00;93.00
1988;DHT22;12775;46.994;15.498;2023-09-07T03:13:15;16.90;92.90
1988;DHT22;12775;46.994;15.498;2023-09-07T03:15:41;16.90;93.10
1988;DHT22;12775;46.994;15.498;2023-09-07T03:18:08;16.90;93.10
1988;DHT22;12775;46.994;15.498;2023-09-07T03:20:35;16.90;93.00
1988;DHT22;12775;46.994;15.498;2023-09-07T03:23:02;16.80;93.30
1988;DHT22;12775;46.994;15.498;2023-09-07T03:25:29;16.80;93.30
1988;DHT22;12775;46.994;15.498;2023-09-07T03:27:55;16.80;93.20
1988;DHT22;12775;46.994;15.498;2023-09-07T03:30:22;16.80;93.40
1988;DHT22;12775;46.994;15.498;2023-09-07T03:32:48;16.70;93.10
1988;DHT22;12775;46.994;15.498;2023-09-07T03:35:15;16.70;93.10
1988;DHT22;12775;46.994;15.498;2023-09-07T03:37:42;16.70;93.20
1988;DHT22;12775;46.994;15.498;2023-09-07T03:40:09;16.70;93.60
1988;DHT22;12775;46.994;15.498;2023-09-07T03:42:36;16.70;93.30
1988;DHT22;12775;46.994;15.498;2023-09-07T03:45:03;16.60;93.50
1988;DHT22;12775;46.994;15.498;2023-09-07T03:47:31;16.60;93.80
1988;DHT22;12775;46.994;15.498;2023-09-07T03:49:57;16.60;93.80
1988;DHT22;12775;46.994;15.498;2023-09-07T03:52:25;16.60;94.10
1988;DHT22;12775;46.994;15.498;2023-09-07T03:54:53;16.50;94.40
1988;DHT22;12775;46.994;15.498;2023-09-07T03:57:18;16.60;93.80
1988;DHT22;12775;46.994;15.498;2023-09-07T03:59:45;16.50;94.10
1988;DHT22;12775;46.994;15.498;2023-09-07T04:02:11;16.50;94.70
1988;DHT22;12775;46.994;15.498;2023-09-07T04:04:38;16.50;94.10
1988;DHT22;12775;46.994;15.498;2023-09-07T04:07:04;16.50;94.20
1988;DHT22;12775;46.994;15.498;2023-09-07T04:09:31;16.50;93.80
1988;DHT22;12775;46.994;15.498;2023-09-07T04:11:58;16.50;93.30
1988;DHT22;12775;46.994;15.498;2023-09-07T04:14:26;16.50;93.40
1988;DHT22;12775;46.994;15.498;2023-09-07T04:16:52;16.40;93.40
1988;DHT22;12775;46.994;15.498;2023-09-07T04:19:19;16.40;93.50
1988;DHT22;12775;46.994;15.498;2023-09-07T04:21:45;16.40;94.30
1988;DHT22;12775;46.994;15.498;2023-09-07T04:24:12;16.40;94.30
1988;DHT22;12775;46.994;15.498;2023-09-07T04:26:39;16.40;93.80
1988;DHT22;12775;46.994;15.498;2023-09-07T04:29:06;16.40;93.80
1988;DHT22;12775;46.994;15.498;2023-09-07T04:31:33;16.40;94.00
1988;DHT22;12775;46.994;15.498;2023-09-07T04:33:59;16.40;94.00
1988;DHT22;12775;46.994;15.498;2023-09-07T04:36:26;16.40;93.60
1988;DHT22;12775;46.994;15.498;2023-09-07T04:38:52;16.40;93.20
1988;DHT22;12775;46.994;15.498;2023-09-07T04:41:19;16.30;93.30
1988;DHT22;12775;46.994;15.498;2023-09-07T04:43:45;16.30;93.60
1988;DHT22;12775;46.994;15.498;2023-09-07T04:46:12;16.20;93.50
1988;DHT22;12775;46.994;15.498;2023-09-07T04:48:39;16.20;93.80
1988;DHT22;12775;46.994;15.498;2023-09-07T04:51:05;16.10;94.10
1988;DHT22;12775;46.994;15.498;2023-09-07T04:53:32;16.10;94.30
1988;DHT22;12775;46.994;15.498;2023-09-07T04:55:58;16.10;94.40
1988;DHT22;12775;46.994;15.498;2023-09-07T04:58:25;16.00;94.70
1988;DHT22;12775;46.994;15.498;2023-09-07T05:00:52;16.00;94.80
1988;DHT22;12775;46.994;15.498;2023-09-07T05:03:18;16.00;94.80
1988;DHT22;12775;46.994;15.498;2023-09-07T05:05:50;15.90;95.50
1988;DHT22;12775;46.994;15.498;2023-09-07T05:08:12;15.80;95.70
1988;DHT22;12775;46.994;15.498;2023-09-07T05:10:39;15.80;95.80
1988;DHT22;12775;46.994;15.498;2023-09-07T05:13:05;15.80;96.20
1988;DHT22;12775;46.994;15.498;2023-09-07T05:15:32;15.80;96.40
1988;DHT22;12775;46.994;15.498;2023-09-07T05:17:59;15.80;96.40
1988;DHT22;12775;46.994;15.498;2023-09-07T05:20:25;15.80;96.30
1988;DHT22;12775;46.994;15.498;2023-09-07T05:22:52;15.80;96.80
1988;DHT22;12775;46.994;15.498;2023-09-07T05:25:18;15.90;98.90
1988;DHT22;12775;46.994;15.498;2023-09-07T05:27:46;16.30;99.90
1988;DHT22;12775;46.994;15.498;2023-09-07T05:30:13;16.70;99.90
1988;DHT22;12775;46.994;15.498;2023-09-07T05:32:40;17.10;99.90
1988;DHT22;12775;46.994;15.498;2023-09-07T05:35:07;17.10;99.90
1988;DHT22;12775;46.994;15.498;2023-09-07T05:37:34;17.50;99.40
1988;DHT22;12775;46.994;15.498;2023-09-07T05:40:02;17.70;98.80
1988;DHT22;12775;46.994;15.498;2023-09-07T05:42:28;18.10;98.70
1988;DHT22;12775;46.994;15.498;2023-09-07T05:44:55;18.60;98.20
1988;DHT22;12775;46.994;15.498;2023-09-07T05:47:21;19.20;97.20
1988;DHT22;12775;46.994;15.498;2023-09-07T05:49:48;19.80;96.60
1988;DHT22;12775;46.994;15.498;2023-09-07T05:52:16;21.00;94.80
1988;DHT22;12775;46.994;15.498;2023-09-07T05:54:42;20.90;94.80
1988;DHT22;12775;46.994;15.498;2023-09-07T05:57:10;21.40;94.60
1988;DHT22;12775;46.994;15.498;2023-09-07T05:59:36;21.60;94.00
1988;DHT22;12775;46.994;15.498;2023-09-07T06:02:05;22.30;92.50
1988;DHT22;12775;46.994;15.498;2023-09-07T06:04:32;22.30;92.50
1988;DHT22;12775;46.994;15.498;2023-09-07T06:06:59;22.60;92.90
1988;DHT22;12775;46.994;15.498;2023-09-07T06:09:26;22.80;92.30
1988;DHT22;12775;46.994;15.498;2023-09-07T06:11:53;22.70;92.30
1988;DHT22;12775;46.994;15.498;2023-09-07T06:14:19;22.80;93.20
1988;DHT22;12775;46.994;15.498;2023-09-07T06:16:46;22.60;93.50
1988;DHT22;12775;46.994;15.498;2023-09-07T06:19:12;22.60;94.00
1988;DHT22;12775;46.994;15.498;2023-09-07T06:21:40;22.80;93.30
1988;DHT22;12775;46.994;15.498;2023-09-07T06:24:07;22.80;93.80
1988;DHT22;12775;46.994;15.498;2023-09-07T06:26:33;23.10;93.00
1988;DHT22;12775;46.994;15.498;2023-09-07T06:29:00;23.10;93.30
1988;DHT22;12775;46.994;15.498;2023-09-07T06:31:28;23.10;94.70
1988;DHT22;12775;46.994;15.498;2023-09-07T06:33:54;23.00;94.70
1988;DHT22;12775;46.994;15.498;2023-09-07T06:36:21;23.20;95.00
1988;DHT22;12775;46.994;15.498;2023-09-07T06:38:48;23.20;95.30
1988;DHT22;12775;46.994;15.498;2023-09-07T06:41:14;23.20;94.80
1988;DHT22;12775;46.994;15.498;2023-09-07T06:43:41;23.30;95.30
1988;DHT22;12775;46.994;15.498;2023-09-07T06:46:08;23.30;94.70
1988;DHT22;12775;46.994;15.498;2023-09-07T06:48:35;23.30;94.70
1988;DHT22;12775;46.994;15.498;2023-09-07T06:51:04;23.40;94.30
1988;DHT22;12775;46.994;15.498;2023-09-07T06:53:30;23.40;94.20
1988;DHT22;12775;46.994;15.498;2023-09-07T06:55:59;23.50;95.90
1988;DHT22;12775;46.994;15.498;2023-09-07T06:58:25;23.50;93.00
1988;DHT22;12775;46.994;15.498;2023-09-07T07:00:51;23.50;95.20
1988;DHT22;12775;46.994;15.498;2023-09-07T07:03:18;23.60;94.20
1988;DHT22;12775;46.994;15.498;2023-09-07T07:05:45;23.50;94.20
1988;DHT22;12775;46.994;15.498;2023-09-07T07:08:12;23.60;94.00
1988;DHT22;12775;46.994;15.498;2023-09-07T07:10:39;23.70;93.90
1988;DHT22;12775;46.994;15.498;2023-09-07T07:13:05;23.60;93.00
1988;DHT22;12775;46.994;15.498;2023-09-07T07:15:33;23.80;93.90
1988;DHT22;12775;46.994;15.498;2023-09-07T07:18:00;23.80;93.90
1988;DHT22;12775;46.994;15.498;2023-09-07T07:20:27;23.90;94.40
1988;DHT22;12775;46.994;15.498;2023-09-07T07:22:55;24.00;93.60
1988;DHT22;12775;46.994;15.498;2023-09-07T07:25:21;24.00;93.60
1988;DHT22;12775;46.994;15.498;2023-09-07T07:27:48;24.00;94.50
1988;DHT22;12775;46.994;15.498;2023-09-07T07:30:14;24.10;94.60
1988;DHT22;12775;46.994;15.498;2023-09-07T07:32:41;24.10;93.60
1988;DHT22;12775;46.994;15.498;2023-09-07T07:35:08;24.20;93.20
1988;DHT22;12775;46.994;15.498;2023-09-07T07:37:35;24.20;93.20
1988;DHT22;12775;46.994;15.498;2023-09-07T07:40:02;24.40;94.70
1988;DHT22;12775;46.994;15.498;2023-09-07T07:42:28;24.40;95.20
1988;DHT22;12775;46.994;15.498;2023-09-07T07:44:55;24.50;94.70
1988;DHT22;12775;46.994;15.498;2023-09-07T07:47:22;24.50;95.40
1988;DHT22;12775;46.994;15.498;2023-09-07T07:49:49;24.80;94.40
1988;DHT22;12775;46.994;15.498;2023-09-07T07:52:15;24.70;94.40
1988;DHT22;12775;46.994;15.498;2023-09-07T07:54:42;24.80;93.10
1988;DHT22;12775;46.994;15.498;2023-09-07T07:57:09;24.90;95.10
1988;DHT22;12775;46.994;15.498;2023-09-07T07:59:36;25.00;93.70
1988;DHT22;12775;46.994;15.498;2023-09-07T08:02:03;25.10;95.40
1988;DHT22;12775;46.994;15.498;2023-09-07T08:04:29;25.20;94.20
1988;DHT22;12775;46.994;15.498;2023-09-07T08:06:56;25.30;93.00
1988;DHT22;12775;46.994;15.498;2023-09-07T08:09:23;25.40;94.30
1988;DHT22;12775;46.994;15.498;2023-09-07T08:11:49;25.60;94.20
1988;DHT22;12775;46.994;15.498;2023-09-07T08:14:16;25.70;94.40
1988;DHT22;12775;46.994;15.498;2023-09-07T08:16:42;25.80;94.50
1988;DHT22;12775;46.994;15.498;2023-09-07T08:19:09;25.90;94.00
1988;DHT22;12775;46.994;15.498;2023-09-07T08:21:36;26.00;93.80
1988;DHT22;12775;46.994;15.498;2023-09-07T08:24:02;26.00;90.30
1988;DHT22;12775;46.994;15.498;2023-09-07T08:26:29;26.10;93.40
1988;DHT22;12775;46.994;15.498;2023-09-07T08:28:55;26.30;93.10
1988;DHT22;12775;46.994;15.498;2023-09-07T08:31:22;26.40;91.70
1988;DHT22;12775;46.994;15.498;2023-09-07T08:33:49;26.50;90.40
1988;DHT22;12775;46.994;15.498;2023-09-07T08:36:15;26.40;89.50
1988;DHT22;12775;46.994;15.498;2023-09-07T08:38:42;26.50;90.90
1988;DHT22;12775;46.994;15.498;2023-09-07T08:41:09;26.50;90.90
1988;DHT22;12775;46.994;15.498;2023-09-07T08:43:45;26.50;86.00
1988;DHT22;12775;46.994;15.498;2023-09-07T08:46:09;26.70;91.50
1988;DHT22;12775;46.994;15.498;2023-09-07T08:48:31;26.60;91.50
1988;DHT22;12775;46.994;15.498;2023-09-07T08:50:57;26.80;89.00
1988;DHT22;12775;46.994;15.498;2023-09-07T08:53:24;26.90;91.10
1988;DHT22;12775;46.994;15.498;2023-09-07T08:55:52;26.90;84.20
1988;DHT22;12775;46.994;15.498;2023-09-07T08:58:18;27.00;89.20
1988;DHT22;12775;46.994;15.498;2023-09-07T09:00:45;27.10;90.00
1988;DHT22;12775;46.994;15.498;2023-09-07T09:03:11;26.90;82.80
1988;DHT22;12775;46.994;15.498;2023-09-07T09:05:39;26.80;83.90
1988;DHT22;12775;46.994;15.498;2023-09-07T09:08:06;26.80;89.00
1988;DHT22;12775;46.994;15.498;2023-09-07T09:10:32;27.00;80.30
1988;DHT22;12775;46.994;15.498;2023-09-07T09:12:59;27.00;82.30
1988;DHT22;12775;46.994;15.498;2023-09-07T09:15:26;27.00;81.60
1988;DHT22;12775;46.994;15.498;2023-09-07T09:17:52;27.10;85.10
1988;DHT22;12775;46.994;15.498;2023-09-07T09:20:26;27.00;83.10
1988;DHT22;12775;46.994;15.498;2023-09-07T09:22:53;27.10;79.80
1988;DHT22;12775;46.994;15.498;2023-09-07T09:25:20;27.20;79.00
1988;DHT22;12775;46.994;15.498;2023-09-07T09:27:47;27.30;83.00
1988;DHT22;12775;46.994;15.498;2023-09-07T09:30:13;27.50;85.80
1988;DHT22;12775;46.994;15.498;2023-09-07T09:32:39;27.60;87.50
1988;DHT22;12775;46.994;15.498;2023-09-07T09:35:06;27.70;69.50
1988;DHT22;12775;46.994;15.498;2023-09-07T09:37:33;27.70;69.10
1988;DHT22;12775;46.994;15.498;2023-09-07T09:40:00;27.70;78.00
1988;DHT22;12775;46.994;15.498;2023-09-07T09:42:26;27.80;71.50
1988;DHT22;12775;46.994;15.498;2023-09-07T09:44:53;27.60;71.90
1988;DHT22;12775;46.994;15.498;2023-09-07T09:47:19;27.60;70.40
1988;DHT22;12775;46.994;15.498;2023-09-07T09:49:46;27.60;79.80
1988;DHT22;12775;46.994;15.498;2023-09-07T09:52:13;27.50;78.50
1988;DHT22;12775;46.994;15.498;2023-09-07T09:54:39;27.50;77.10
1988;DHT22;12775;46.994;15.498;2023-09-07T09:57:06;27.70;74.40
1988;DHT22;12775;46.994;15.498;2023-09-07T09:59:32;27.90;74.30
1988;DHT22;12775;46.994;15.498;2023-09-07T10:01:59;27.90;70.00
1988;DHT22;12775;46.994;15.498;2023-09-07T10:04:26;28.10;75.00
1988;DHT22;12775;46.994;15.498;2023-09-07T10:06:54;28.20;83.10
1988;DHT22;12775;46.994;15.498;2023-09-07T10:09:20;28.30;77.90
1988;DHT22;12775;46.994;15.498;2023-09-07T10:11:51;28.50;68.70
1988;DHT22;12775;46.994;15.498;2023-09-07T10:14:18;28.50;69.60
1988;DHT22;12775;46.994;15.498;2023-09-07T10:16:45;28.40;69.30
1988;DHT22;12775;46.994;15.498;2023-09-07T10:19:15;28.40;65.10
1988;DHT22;12775;46.994;15.498;2023-09-07T10:21:41;28.40;63.50
1988;DHT22;12775;46.994;15.498;2023-09-07T10:24:08;28.40;63.10
1988;DHT22;12775;46.994;15.498;2023-09-07T10:26:35;28.30;69.40
1988;DHT22;12775;46.994;15.498;2023-09-07T10:29:01;28.20;66.90
1988;DHT22;12775;46.994;15.498;2023-09-07T10:31:28;28.20;67.50
1988;DHT22;12775;46.994;15.498;2023-09-07T10:33:55;28.30;70.60
1988;DHT22;12775;46.994;15.498;2023-09-07T10:36:23;28.30;63.30
1988;DHT22;12775;46.994;15.498;2023-09-07T10:38:49;28.40;63.40
1988;DHT22;12775;46.994;15.498;2023-09-07T10:41:15;28.50;61.10
1988;DHT22;12775;46.994;15.498;2023-09-07T10:43:48;28.50;72.50
1988;DHT22;12775;46.994;15.498;2023-09-07T10:46:17;28.50;66.40
1988;DHT22;12775;46.994;15.498;2023-09-07T10:48:42;28.50;66.40
1988;DHT22;12775;46.994;15.498;2023-09-07T10:51:08;28.60;62.80
1988;DHT22;12775;46.994;15.498;2023-09-07T10:53:35;28.30;61.20
1988;DHT22;12775;46.994;15.498;2023-09-07T10:56:03;28.40;73.90
1988;DHT22;12775;46.994;15.498;2023-09-07T10:58:31;28.60;69.70
1988;DHT22;12775;46.994;15.498;2023-09-07T11:00:57;28.50;63.10
1988;DHT22;12775;46.994;15.498;2023-09-07T11:03:24;28.60;69.60
1988;DHT22;12775;46.994;15.498;2023-09-07T11:05:51;28.70;70.30
1988;DHT22;12775;46.994;15.498;2023-09-07T11:08:18;29.00;65.40
1988;DHT22;12775;46.994;15.498;2023-09-07T11:10:44;28.90;65.30
1988;DHT22;12775;46.994;15.498;2023-09-07T11:13:12;28.90;63.00
1988;DHT22;12775;46.994;15.498;2023-09-07T11:15:38;28.90;63.00
1988;DHT22;12775;46.994;15.498;2023-09-07T11:18:05;28.80;63.50
1988;DHT22;12775;46.994;15.498;2023-09-07T11:20:33;28.60;62.20
1988;DHT22;12775;46.994;15.498;2023-09-07T11:22:59;28.50;65.00
1988;DHT22;12775;46.994;15.498;2023-09-07T11:25:26;28.40;62.40
1988;DHT22;12775;46.994;15.498;2023-09-07T11:27:53;28.60;68.10
1988;DHT22;12775;46.994;15.498;2023-09-07T11:30:21;28.60;63.50
1988;DHT22;12775;46.994;15.498;2023-09-07T11:32:47;28.60;63.50
1988;DHT22;12775;46.994;15.498;2023-09-07T11:35:14;28.80;70.60
1988;DHT22;12775;46.994;15.498;2023-09-07T11:37:40;29.00;74.60
1988;DHT22;12775;46.994;15.498;2023-09-07T11:40:07;28.90;64.80
1988;DHT22;12775;46.994;15.498;2023-09-07T11:42:38;29.00;67.40
1988;DHT22;12775;46.994;15.498;2023-09-07T11:45:06;29.00;67.30
1988;DHT22;12775;46.994;15.498;2023-09-07T11:47:32;29.00;65.40
1988;DHT22;12775;46.994;15.498;2023-09-07T11:49:59;29.00;66.40
1988;DHT22;12775;46.994;15.498;2023-09-07T11:52:26;28.90;65.50
1988;DHT22;12775;46.994;15.498;2023-09-07T11:54:52;29.00;66.30
1988;DHT22;12775;46.994;15.498;2023-09-07T11:57:19;28.90;67.30
1988;DHT22;12775;46.994;15.498;2023-09-07T11:59:46;29.00;72.10
1988;DHT22;12775;46.994;15.498;2023-09-07T12:02:12;28.70;66.80
1988;DHT22;12775;46.994;15.498;2023-09-07T12:04:39;28.70;67.10
1988;DHT22;12775;46.994;15.498;2023-09-07T12:07:05;28.90;66.90
1988;DHT22;12775;46.994;15.498;2023-09-07T12:09:32;29.00;63.40
1988;DHT22;12775;46.994;15.498;2023-09-07T12:11:58;29.10;63.70
1988;DHT22;12775;46.994;15.498;2023-09-07T12:14:25;29.10;64.10
1988;DHT22;12775;46.994;15.498;2023-09-07T12:16:52;28.70;62.90
1988;DHT22;12775;46.994;15.498;2023-09-07T12:19:18;28.80;64.00
1988;DHT22;12775;46.994;15.498;2023-09-07T12:21:45;28.90;67.40
1988;DHT22;12775;46.994;15.498;2023-09-07T12:24:12;29.00;71.10
1988;DHT22;12775;46.994;15.498;2023-09-07T12:26:39;29.10;74.10
1988;DHT22;12775;46.994;15.498;2023-09-07T12:29:06;29.40;74.50
1988;DHT22;12775;46.994;15.498;2023-09-07T12:31:32;29.50;72.50
1988;DHT22;12775;46.994;15.498;2023-09-07T12:33:59;29.70;72.80
1988;DHT22;12775;46.994;15.498;2023-09-07T12:36:25;29.80;64.90
1988;DHT22;12775;46.994;15.498;2023-09-07T12:38:52;29.80;69.60
1988;DHT22;12775;46.994;15.498;2023-09-07T12:41:19;30.00;70.10
1988;DHT22;12775;46.994;15.498;2023-09-07T12:43:45;30.20;72.80
1988;DHT22;12775;46.994;15.498;2023-09-07T12:46:12;30.30;70.80
1988;DHT22;12775;46.994;15.498;2023-09-07T12:48:38;30.40;71.40
1988;DHT22;12775;46.994;15.498;2023-09-07T12:51:05;30.50;72.20
1988;DHT22;12775;46.994;15.498;2023-09-07T12:53:31;30.60;72.10
1988;DHT22;12775;46.994;15.498;2023-09-07T12:55:58;30.70;69.60
1988;DHT22;12775;46.994;15.498;2023-09-07T12:58:25;30.70;71.40
1988;DHT22;12775;46.994;15.498;2023-09-07T13:00:52;30.80;72.70
1988;DHT22;12775;46.994;15.498;2023-09-07T13:03:19;30.80;72.70
1988;DHT22;12775;46.994;15.498;2023-09-07T13:05:45;30.90;68.10
1988;DHT22;12775;46.994;15.498;2023-09-07T13:08:12;31.10;69.70
1988;DHT22;12775;46.994;15.498;2023-09-07T13:10:38;31.10;66.80
1988;DHT22;12775;46.994;15.498;2023-09-07T13:13:05;31.20;61.80
1988;DHT22;12775;46.994;15.498;2023-09-07T13:15:32;31.00;60.10
1988;DHT22;12775;46.994;15.498;2023-09-07T13:17:59;30.90;63.40
1988;DHT22;12775;46.994;15.498;2023-09-07T13:20:26;30.90;63.40
1988;DHT22;12775;46.994;15.498;2023-09-07T13:22:52;30.80;61.80
1988;DHT22;12775;46.994;15.498;2023-09-07T13:25:19;30.60;63.60
1988;DHT22;12775;46.994;15.498;2023-09-07T13:27:45;30.50;63.70
1988;DHT22;12775;46.994;15.498;2023-09-07T13:30:12;30.40;63.10
1988;DHT22;12775;46.994;15.498;2023-09-07T13:32:39;30.20;61.20
1988;DHT22;12775;46.994;15.498;2023-09-07T13:35:05;30.20;62.50
1988;DHT22;12775;46.994;15.498;2023-09-07T13:37:32;30.00;63.00
1988;DHT22;12775;46.994;15.498;2023-09-07T13:39:59;30.10;68.20
1988;DHT22;12775;46.994;15.498;2023-09-07T13:42:26;30.10;68.20
1988;DHT22;12775;46.994;15.498;2023-09-07T13:44:52;30.20;61.20
1988;DHT22;12775;46.994;15.498;2023-09-07T13:47:19;30.30;61.40
1988;DHT22;12775;46.994;15.498;2023-09-07T13:49:46;30.30;60.10
1988;DHT22;12775;46.994;15.498;2023-09-07T13:52:12;30.10;61.40
1988;DHT22;12775;46.994;15.498;2023-09-07T13:54:39;30.00;60.50
1988;DHT22;12775;46.994;15.498;2023-09-07T13:57:07;29.90;61.80
1988;DHT22;12775;46.994;15.498;2023-09-07T13:59:34;29.80;61.80
1988;DHT22;12775;46.994;15.498;2023-09-07T14:02:00;29.70;61.40
1988;DHT22;12775;46.994;15.498;2023-09-07T14:04:27;29.70;62.30
1988;DHT22;12775;46.994;15.498;2023-09-07T14:06:53;29.70;62.60
1988;DHT22;12775;46.994;15.498;2023-09-07T14:09:20;29.70;62.60
1988;DHT22;12775;46.994;15.498;2023-09-07T14:11:47;29.70;62.30
1988;DHT22;12775;46.994;15.498;2023-09-07T14:14:13;29.70;60.80
1988;DHT22;12775;46.994;15.498;2023-09-07T14:16:40;29.70;61.10
1988;DHT22;12775;46.994;15.498;2023-09-07T14:19:06;29.80;65.80
1988;DHT22;12775;46.994;15.498;2023-09-07T14:21:33;29.90;61.60
1988;DHT22;12775;46.994;15.498;2023-09-07T14:24:00;29.80;61.90
1988;DHT22;12775;46.994;15.498;2023-09-07T14:26:26;29.80;62.40
1988;DHT22;12775;46.994;15.498;2023-09-07T14:28:53;29.70;59.60
1988;DHT22;12775;46.994;15.498;2023-09-07T14:31:19;29.60;59.20
1988;DHT22;12775;46.994;15.498;2023-09-07T14:33:46;29.50;60.20
1988;DHT22;12775;46.994;15.498;2023-09-07T14:36:13;29.50;60.20
1988;DHT22;12775;46.994;15.498;2023-09-07T14:38:41;29.40;59.60
1988;DHT22;12775;46.994;15.498;2023-09-07T14:41:07;29.40;59.50
1988;DHT22;12775;46.994;15.498;2023-09-07T14:43:34;29.30;59.60
1988;DHT22;12775;46.994;15.498;2023-09-07T14:46:01;29.20;57.50
1988;DHT22;12775;46.994;15.498;2023-09-07T14:48:28;29.20;58.00
1988;DHT22;12775;46.994;15.498;2023-09-07T14:50:54;29.10;60.20
1988;DHT22;12775;46.994;15.498;2023-09-07T14:53:21;29.10;59.60
1988;DHT22;12775;46.994;15.498;2023-09-07T14:55:47;29.20;58.60
1988;DHT22;12775;46.994;15.498;2023-09-07T14:58:14;29.20;59.20
1988;DHT22;12775;46.994;15.498;2023-09-07T15:00:41;29.30;59.00
1988;DHT22;12775;46.994;15.498;2023-09-07T15:03:07;29.30;58.80
1988;DHT22;12775;46.994;15.498;2023-09-07T15:05:34;29.20;60.70
1988;DHT22;12775;46.994;15.498;2023-09-07T15:08:00;29.20;59.00
1988;DHT22;12775;46.994;15.498;2023-09-07T15:10:27;29.30;62.50
1988;DHT22;12775;46.994;15.498;2023-09-07T15:12:54;29.20;60.60
1988;DHT22;12775;46.994;15.498;2023-09-07T15:15:20;29.30;60.10
1988;DHT22;12775;46.994;15.498;2023-09-07T15:17:47;29.20;59.30
1988;DHT22;12775;46.994;15.498;2023-09-07T15:20:14;29.10;59.60
1988;DHT22;12775;46.994;15.498;2023-09-07T15:22:41;29.10;59.40
1988;DHT22;12775;46.994;15.498;2023-09-07T15:25:08;29.10;60.80
1988;DHT22;12775;46.994;15.498;2023-09-07T15:27:34;29.10;60.00